Time;durP1;ratioP1;P1;durP2;ratioP2;P2;SDS_P1;SDS_P2;PMS_P1;PMS_P2;Temp;Humidity;BMP_temperature;BMP_pressure;BME280_temperature;BME280_humidity;BME280_pressure;Samples;Min_cycle;Max_cycle;Signal;HPM_P1;HPM_P2
2021/01/02 00:02:05;;;;;;;68.40;37.00;;;3.90;99.90;;;;;;4996955;28;20603;-48
2021/01/02 00:05:07;;;;;;;71.00;38.10;;;4.00;99.90;;;;;;4994474;28;20684;-48
2021/01/02 00:08:11;;;;;;;72.33;36.67;;;3.90;99.90;;;;;;4997597;28;20490;-49
2021/01/02 00:10:47;;;;;;;71.30;36.50;;;4.00;99.90;;;;;;4986845;28;21094;-48
2021/01/02 00:13:26;;;;;;;69.00;38.17;;;3.90;99.90;;;;;;4995324;28;20489;-48
2021/01/02 00:16:45;;;;;;;64.43;37.40;;;4.00;99.90;;;;;;4997494;28;20559;-48
2021/01/02 00:19:26;;;;;;;60.03;34.37;;;3.90;99.90;;;;;;4992133;28;20525;-48
2021/01/02 00:22:03;;;;;;;65.47;35.90;;;4.00;99.90;;;;;;4996386;28;21083;-48
2021/01/02 00:24:39;;;;;;;66.13;37.23;;;3.90;99.90;;;;;;4994876;28;20521;-48
2021/01/02 00:27:18;;;;;;;63.07;36.20;;;3.90;99.90;;;;;;4997148;28;20571;-48
2021/01/02 00:30:06;;;;;;;63.03;35.97;;;3.90;99.90;;;;;;4997040;28;21543;-48
2021/01/02 00:33:00;;;;;;;66.87;37.17;;;3.90;99.90;;;;;;4994824;28;20487;-48
2021/01/02 00:35:29;;;;;;;61.53;35.50;;;3.80;99.90;;;;;;4983450;28;20603;-48
2021/01/02 00:38:03;;;;;;;56.80;32.73;;;3.90;99.90;;;;;;4997053;28;21025;-48
2021/01/02 00:40:33;;;;;;;68.03;36.53;;;3.80;99.90;;;;;;4993123;28;20482;-48
2021/01/02 00:43:02;;;;;;;61.87;35.83;;;3.80;99.90;;;;;;4991073;28;20510;-48
2021/01/02 00:45:32;;;;;;;60.07;35.60;;;3.70;99.90;;;;;;4994220;28;20489;-48
2021/01/02 00:48:04;;;;;;;60.73;34.77;;;3.70;99.90;;;;;;4994779;28;21097;-48
2021/01/02 00:50:32;;;;;;;60.03;33.97;;;3.80;99.90;;;;;;5009012;28;20837;-48
2021/01/02 00:53:30;;;;;;;60.60;35.10;;;3.90;99.90;;;;;;5006932;28;20487;-48
2021/01/02 00:56:28;;;;;;;63.13;35.17;;;3.80;99.90;;;;;;5010425;28;20483;-48
2021/01/02 00:59:27;;;;;;;58.30;33.07;;;3.80;99.90;;;;;;5021294;28;20998;-48
2021/01/02 01:02:35;;;;;;;61.27;34.80;;;3.90;99.90;;;;;;5006109;28;20537;-48
2021/01/02 01:05:06;;;;;;;55.40;32.87;;;3.90;99.90;;;;;;4964328;28;20895;-49
2021/01/02 01:07:36;;;;;;;55.40;30.60;;;3.90;99.90;;;;;;5008761;28;20480;-48
2021/01/02 01:10:09;;;;;;;62.17;35.23;;;4.00;99.90;;;;;;5005914;28;20509;-48
2021/01/02 01:12:43;;;;;;;62.50;36.37;;;4.00;99.90;;;;;;5005500;28;20546;-48
2021/01/02 01:15:12;;;;;;;59.10;34.40;;;3.90;99.90;;;;;;5006809;28;20484;-48
2021/01/02 01:17:52;;;;;;;59.57;34.03;;;3.90;99.90;;;;;;5006946;28;20482;-48
2021/01/02 01:20:22;;;;;;;58.07;34.33;;;3.90;99.90;;;;;;5007376;28;20507;-48
2021/01/02 01:23:34;;;;;;;56.47;33.57;;;3.90;99.90;;;;;;5007221;28;20514;-48
2021/01/02 01:26:20;;;;;;;58.20;34.00;;;3.90;99.90;;;;;;5000868;28;20477;-49
2021/01/02 01:29:00;;;;;;;59.87;32.97;;;3.90;99.90;;;;;;5009703;28;21007;-48
2021/01/02 01:31:44;;;;;;;65.40;37.07;;;3.80;99.90;;;;;;5008630;28;20938;-48
2021/01/02 01:34:21;;;;;;;57.20;34.70;;;3.80;99.90;;;;;;5009723;28;20476;-48
2021/01/02 01:36:50;;;;;;;62.20;35.47;;;3.70;99.90;;;;;;5008730;28;20483;-48
2021/01/02 01:39:21;;;;;;;64.60;35.33;;;3.70;99.90;;;;;;5009667;28;20578;-48
2021/01/02 01:41:59;;;;;;;56.50;35.43;;;3.80;99.90;;;;;;5012560;28;21167;-48
2021/01/02 01:44:44;;;;;;;60.50;36.63;;;3.90;99.90;;;;;;5029224;28;21022;-48
2021/01/02 01:47:18;;;;;;;65.93;36.50;;;3.80;99.90;;;;;;5029309;28;20483;-48
2021/01/02 01:50:25;;;;;;;58.63;35.40;;;3.80;99.90;;;;;;5028819;28;20572;-48
2021/01/02 01:53:28;;;;;;;56.83;34.90;;;3.90;99.90;;;;;;5028930;28;20893;-48
2021/01/02 01:56:10;;;;;;;59.00;35.30;;;3.90;99.90;;;;;;5029107;28;20498;-48
2021/01/02 01:59:14;;;;;;;58.20;34.13;;;3.80;99.90;;;;;;5029067;28;20525;-48
2021/01/02 02:01:47;;;;;;;60.83;36.20;;;3.80;99.90;;;;;;5011824;28;20584;-48
2021/01/02 02:05:03;;;;;;;61.73;35.27;;;3.80;99.90;;;;;;5011591;28;20489;-48
2021/01/02 02:07:44;;;;;;;63.80;36.57;;;3.90;99.90;;;;;;4988884;28;20843;-48
2021/01/02 02:10:16;;;;;;;59.53;34.07;;;4.00;99.90;;;;;;4989251;28;20918;-48
2021/01/02 02:12:55;;;;;;;59.07;37.77;;;4.00;99.90;;;;;;4988558;28;20488;-48
2021/01/02 02:15:25;;;;;;;60.57;34.83;;;3.90;99.90;;;;;;4989172;28;20515;-49
2021/01/02 02:18:05;;;;;;;66.50;38.00;;;4.10;99.90;;;;;;4991862;28;20545;-48
2021/01/02 02:20:34;;;;;;;64.10;36.60;;;4.00;99.90;;;;;;5027704;28;20564;-48
2021/01/02 02:23:07;;;;;;;63.70;37.40;;;4.00;99.90;;;;;;5020947;28;20563;-48
2021/01/02 02:26:04;;;;;;;58.40;36.60;;;4.00;99.90;;;;;;5009695;28;20512;-48
2021/01/02 02:29:22;;;;;;;57.53;36.37;;;4.00;99.90;;;;;;5008780;28;20893;-47
2021/01/02 02:31:50;;;;;;;60.37;36.57;;;4.00;99.90;;;;;;5007515;28;20481;-48
2021/01/02 02:34:18;;;;;;;58.57;35.87;;;4.10;99.90;;;;;;5008057;28;20580;-48
2021/01/02 02:36:45;;;;;;;57.73;35.37;;;4.10;99.90;;;;;;5002864;28;20926;-48
2021/01/02 02:39:15;;;;;;;59.57;36.33;;;4.10;99.90;;;;;;5009264;28;20891;-48
2021/01/02 02:41:52;;;;;;;57.57;35.90;;;4.00;99.90;;;;;;5026156;28;20482;-48
2021/01/02 02:44:25;;;;;;;63.50;36.83;;;4.10;99.90;;;;;;5013851;28;20500;-48
2021/01/02 02:46:56;;;;;;;58.23;35.93;;;4.10;99.90;;;;;;5007034;28;20491;-48
2021/01/02 02:49:25;;;;;;;64.03;36.33;;;4.10;99.90;;;;;;5007759;28;21015;-48
2021/01/02 02:51:58;;;;;;;51.93;31.53;;;4.10;99.90;;;;;;5008025;28;20987;-49
2021/01/02 02:54:26;;;;;;;68.13;39.77;;;4.20;99.90;;;;;;5006862;28;21088;-48
2021/01/02 02:56:54;;;;;;;66.33;39.00;;;4.20;99.90;;;;;;5006872;28;20470;-49
2021/01/02 02:59:26;;;;;;;64.20;38.90;;;4.10;99.90;;;;;;5007153;28;20502;-48
2021/01/02 03:01:53;;;;;;;60.27;35.70;;;4.30;99.90;;;;;;5005987;28;20579;-49
2021/01/02 03:04:21;;;;;;;68.57;39.67;;;4.40;99.90;;;;;;5006665;28;20484;-48
2021/01/02 03:06:49;;;;;;;65.73;39.73;;;4.20;99.90;;;;;;5006500;28;21591;-48
2021/01/02 03:09:17;;;;;;;64.53;35.03;;;4.10;99.90;;;;;;5006496;28;20528;-48
2021/01/02 03:11:44;;;;;;;67.93;39.07;;;4.30;99.90;;;;;;5006236;28;20505;-48
2021/01/02 03:14:14;;;;;;;71.10;38.80;;;4.40;99.90;;;;;;5007124;28;20834;-48
2021/01/02 03:16:41;;;;;;;71.23;40.03;;;4.40;99.90;;;;;;5006797;28;20513;-48
2021/01/02 03:19:09;;;;;;;69.70;40.17;;;4.30;99.90;;;;;;5006566;28;20499;-48
2021/01/02 03:21:36;;;;;;;69.43;37.37;;;4.30;99.90;;;;;;5005714;28;20478;-48
2021/01/02 03:24:08;;;;;;;79.27;42.43;;;4.40;99.90;;;;;;5006515;28;20472;-48
2021/01/02 03:26:35;;;;;;;81.17;42.90;;;4.40;99.90;;;;;;5005639;28;20926;-48
2021/01/02 03:29:03;;;;;;;70.20;40.57;;;4.30;99.90;;;;;;5007742;28;20565;-48
2021/01/02 03:31:31;;;;;;;73.40;42.30;;;4.30;99.90;;;;;;5005237;28;20867;-49
2021/01/02 03:33:58;;;;;;;69.07;40.87;;;4.30;99.90;;;;;;5019287;28;20515;-49
2021/01/02 03:36:25;;;;;;;69.07;41.20;;;4.30;99.90;;;;;;5007732;28;20467;-48
2021/01/02 03:38:54;;;;;;;76.47;42.50;;;4.30;99.90;;;;;;5024630;28;20503;-49
2021/01/02 03:41:23;;;;;;;72.83;43.23;;;4.30;99.90;;;;;;5017980;28;20615;-48
2021/01/02 03:43:51;;;;;;;69.10;39.57;;;4.30;99.90;;;;;;5007608;28;20994;-48
2021/01/02 03:46:20;;;;;;;82.43;45.00;;;4.40;99.90;;;;;;5007745;28;20487;-48
2021/01/02 03:48:50;;;;;;;78.50;43.90;;;4.30;99.90;;;;;;5007231;28;20486;-48
2021/01/02 03:51:23;;;;;;;69.20;41.83;;;4.40;99.90;;;;;;5007590;28;20564;-48
2021/01/02 03:53:50;;;;;;;72.80;42.43;;;4.40;99.90;;;;;;5007701;28;20499;-48
2021/01/02 03:56:18;;;;;;;68.33;40.50;;;4.40;99.90;;;;;;5007831;28;21026;-48
2021/01/02 03:58:45;;;;;;;75.77;43.50;;;4.40;99.90;;;;;;5007598;28;21068;-48
2021/01/02 04:01:13;;;;;;;65.53;39.13;;;4.30;99.90;;;;;;5009165;28;21051;-48
2021/01/02 04:03:41;;;;;;;71.47;41.97;;;4.40;99.90;;;;;;5007582;28;20508;-48
2021/01/02 04:06:09;;;;;;;67.30;39.77;;;4.40;99.90;;;;;;5009976;28;20573;-49
2021/01/02 04:08:37;;;;;;;66.90;38.90;;;4.40;99.90;;;;;;5007513;28;20486;-48
2021/01/02 04:11:04;;;;;;;72.87;43.53;;;4.40;99.90;;;;;;5007047;28;20561;-48
2021/01/02 04:13:31;;;;;;;71.57;42.13;;;4.30;99.90;;;;;;5007113;28;21003;-48
2021/01/02 04:15:59;;;;;;;67.27;39.60;;;4.30;99.90;;;;;;5007519;28;21067;-48
2021/01/02 04:18:26;;;;;;;73.73;39.80;;;4.40;99.90;;;;;;5010084;28;20482;-48
2021/01/02 04:20:53;;;;;;;76.20;42.40;;;4.50;99.90;;;;;;5006671;28;21061;-48
2021/01/02 04:23:22;;;;;;;73.10;41.97;;;4.40;99.90;;;;;;5007141;28;20889;-48
2021/01/02 04:25:49;;;;;;;68.30;38.27;;;4.50;99.90;;;;;;5014521;28;20517;-48
2021/01/02 04:28:17;;;;;;;72.93;41.63;;;4.40;99.90;;;;;;5007684;28;20562;-48
2021/01/02 04:30:45;;;;;;;75.03;44.10;;;4.40;99.90;;;;;;5009102;28;20530;-48
2021/01/02 04:33:13;;;;;;;66.33;40.77;;;4.30;99.90;;;;;;5013329;28;20239;-48
2021/01/02 04:35:42;;;;;;;67.43;39.53;;;4.30;99.90;;;;;;5014060;28;20882;-48
2021/01/02 04:38:09;;;;;;;66.60;40.30;;;4.40;99.90;;;;;;5026676;28;20518;-48
2021/01/02 04:40:37;;;;;;;64.87;39.57;;;4.40;99.90;;;;;;5010391;28;20889;-48
2021/01/02 04:43:05;;;;;;;70.07;40.27;;;4.40;99.90;;;;;;5011083;28;20903;-48
2021/01/02 04:45:32;;;;;;;66.97;40.70;;;4.40;99.90;;;;;;5011082;28;20517;-48
2021/01/02 04:48:06;;;;;;;62.63;38.27;;;4.40;99.90;;;;;;5011035;28;20482;-48
2021/01/02 04:50:34;;;;;;;65.03;38.70;;;4.40;99.90;;;;;;5010070;28;21105;-47
2021/01/02 04:53:05;;;;;;;63.87;38.57;;;4.40;99.90;;;;;;5011316;28;20473;-49
2021/01/02 04:55:33;;;;;;;67.10;38.80;;;4.40;99.90;;;;;;5010616;28;20860;-49
2021/01/02 04:58:07;;;;;;;68.30;38.67;;;4.40;99.90;;;;;;5010813;28;20529;-48
2021/01/02 05:00:38;;;;;;;66.97;39.37;;;4.50;99.90;;;;;;5009896;28;20505;-49
2021/01/02 05:03:06;;;;;;;72.60;40.77;;;4.40;99.90;;;;;;5010422;28;20483;-48
2021/01/02 05:05:33;;;;;;;72.50;41.40;;;4.40;99.90;;;;;;5010526;28;20856;-48
2021/01/02 05:08:02;;;;;;;71.63;40.20;;;4.30;99.90;;;;;;5010697;28;21076;-48
2021/01/02 05:10:30;;;;;;;66.47;39.10;;;4.40;99.90;;;;;;5010150;28;20490;-48
2021/01/02 05:13:09;;;;;;;68.17;39.90;;;4.40;99.90;;;;;;5011062;28;20495;-48
2021/01/02 05:15:36;;;;;;;68.10;38.87;;;4.30;99.90;;;;;;5010366;28;20807;-48
2021/01/02 05:18:04;;;;;;;66.13;38.53;;;4.40;99.90;;;;;;5010249;28;20522;-48
2021/01/02 05:20:32;;;;;;;67.77;38.57;;;4.40;99.90;;;;;;5009694;28;20496;-48
2021/01/02 05:23:08;;;;;;;72.60;38.87;;;4.30;99.90;;;;;;5010163;28;20476;-49
2021/01/02 05:25:37;;;;;;;71.87;39.47;;;4.30;99.90;;;;;;5010426;28;20888;-48
2021/01/02 05:28:05;;;;;;;68.57;39.33;;;4.30;99.90;;;;;;5007085;28;20820;-48
2021/01/02 05:30:34;;;;;;;71.67;39.97;;;4.30;99.90;;;;;;5009712;28;21012;-48
2021/01/02 05:33:07;;;;;;;67.40;39.53;;;4.30;99.90;;;;;;5008620;28;20510;-48
2021/01/02 05:35:41;;;;;;;70.90;40.50;;;4.30;99.90;;;;;;5029168;28;20915;-47
2021/01/02 05:38:17;;;;;;;65.37;38.97;;;4.40;99.90;;;;;;5010528;28;21063;-48
2021/01/02 05:40:48;;;;;;;68.10;38.67;;;4.30;99.90;;;;;;5009369;28;20464;-49
2021/01/02 05:43:18;;;;;;;71.57;40.93;;;4.30;99.90;;;;;;5009160;28;20561;-48
2021/01/02 05:45:47;;;;;;;70.23;39.03;;;4.30;99.90;;;;;;5009313;28;20573;-48
2021/01/02 05:48:21;;;;;;;68.90;37.57;;;4.30;99.90;;;;;;5010154;28;20504;-48
2021/01/02 05:50:52;;;;;;;73.47;41.30;;;4.30;99.90;;;;;;4998938;28;20559;-48
2021/01/02 05:53:26;;;;;;;75.33;40.53;;;4.30;99.90;;;;;;5008186;28;20478;-48
2021/01/02 05:56:01;;;;;;;67.13;37.93;;;4.30;99.90;;;;;;5010927;28;20503;-48
2021/01/02 05:58:31;;;;;;;70.90;40.30;;;4.40;99.90;;;;;;5007960;28;20710;-48
2021/01/02 06:01:14;;;;;;;73.20;40.67;;;4.40;99.90;;;;;;5008036;28;20572;-48
2021/01/02 06:03:44;;;;;;;73.43;38.80;;;4.40;99.90;;;;;;5007854;28;20507;-48
2021/01/02 06:06:13;;;;;;;74.00;39.07;;;4.40;99.90;;;;;;5007770;28;20499;-48
2021/01/02 06:08:43;;;;;;;85.83;42.77;;;4.40;99.90;;;;;;5007874;28;20563;-48
2021/01/02 06:11:14;;;;;;;81.07;42.93;;;4.40;99.90;;;;;;5009997;28;20541;-48
2021/01/02 06:13:45;;;;;;;76.43;40.27;;;4.40;99.90;;;;;;5007814;28;20944;-48
2021/01/02 06:16:14;;;;;;;73.07;40.67;;;4.40;99.90;;;;;;5008034;28;20944;-48
2021/01/02 06:18:43;;;;;;;78.00;40.43;;;4.40;99.90;;;;;;5007100;28;20573;-48
2021/01/02 06:21:14;;;;;;;78.93;41.53;;;4.30;99.90;;;;;;5009807;28;20523;-48
2021/01/02 06:23:44;;;;;;;74.40;39.63;;;4.30;99.90;;;;;;5005432;28;20914;-48
2021/01/02 06:26:13;;;;;;;73.03;36.87;;;4.40;99.90;;;;;;5014062;28;20505;-48
2021/01/02 06:28:43;;;;;;;77.07;42.67;;;4.40;99.90;;;;;;5013580;28;20552;-49
2021/01/02 06:31:13;;;;;;;78.43;41.40;;;4.40;99.90;;;;;;5019180;28;20857;-48
2021/01/02 06:33:45;;;;;;;76.53;41.13;;;4.40;99.90;;;;;;5022358;28;20993;-48
2021/01/02 06:36:29;;;;;;;71.10;35.87;;;4.40;99.90;;;;;;5007739;28;20491;-48
2021/01/02 06:39:20;;;;;;;77.77;41.40;;;4.70;99.90;;;;;;5007836;28;20479;-48
2021/01/02 06:41:49;;;;;;;83.37;42.70;;;4.50;99.90;;;;;;5006838;28;21138;-48
2021/01/02 06:44:41;;;;;;;79.17;42.03;;;4.50;99.90;;;;;;5007516;28;20504;-48
2021/01/02 06:47:19;;;;;;;77.27;40.40;;;4.50;99.90;;;;;;5008388;28;20870;-48
2021/01/02 06:49:47;;;;;;;76.27;40.07;;;4.50;99.90;;;;;;5006701;28;21069;-48
2021/01/02 06:52:34;;;;;;;75.10;38.90;;;4.50;99.90;;;;;;5006933;28;20491;-48
2021/01/02 06:55:21;;;;;;;78.50;41.53;;;4.60;99.90;;;;;;5006940;28;20480;-48
2021/01/02 06:57:51;;;;;;;73.53;40.80;;;4.60;99.90;;;;;;5009677;28;20562;-48
2021/01/02 07:00:23;;;;;;;72.27;41.00;;;4.60;99.90;;;;;;5006554;28;20575;-48
2021/01/02 07:02:52;;;;;;;70.17;39.50;;;4.50;99.90;;;;;;5006730;28;20528;-48
2021/01/02 07:05:47;;;;;;;68.60;38.97;;;4.40;99.90;;;;;;5007219;28;20563;-48
2021/01/02 07:08:40;;;;;;;65.20;38.77;;;4.40;99.90;;;;;;5006997;28;20476;-48
2021/01/02 07:11:26;;;;;;;66.27;39.50;;;4.30;99.90;;;;;;5006471;28;20992;-48
2021/01/02 07:14:28;;;;;;;67.00;37.83;;;4.30;99.90;;;;;;5006783;28;20870;-48
2021/01/02 07:16:58;;;;;;;63.63;37.23;;;4.40;99.90;;;;;;5003673;28;20474;-48
2021/01/02 07:19:55;;;;;;;67.40;38.23;;;4.30;99.90;;;;;;5006263;28;20485;-49
2021/01/02 07:22:28;;;;;;;68.63;38.57;;;4.30;99.90;;;;;;5004304;28;20513;-50
2021/01/02 07:25:02;;;;;;;63.70;38.03;;;4.40;99.90;;;;;;5020052;28;20554;-48
2021/01/02 07:27:32;;;;;;;57.93;35.13;;;4.40;99.90;;;;;;5017725;28;20560;-48
2021/01/02 07:30:05;;;;;;;66.33;36.27;;;4.40;99.90;;;;;;5026440;28;20503;-48
2021/01/02 07:32:34;;;;;;;62.97;37.63;;;4.40;99.90;;;;;;5025906;28;20559;-48
2021/01/02 07:35:07;;;;;;;68.33;38.73;;;4.30;99.90;;;;;;5026615;28;21016;-48
2021/01/02 07:37:36;;;;;;;60.93;38.13;;;4.40;99.90;;;;;;5026316;28;20522;-49
2021/01/02 07:40:07;;;;;;;65.67;37.67;;;4.30;99.90;;;;;;5026077;28;21054;-48
2021/01/02 07:42:37;;;;;;;68.87;39.07;;;4.30;99.90;;;;;;5025598;28;20512;-48
2021/01/02 07:45:09;;;;;;;62.93;36.77;;;4.30;99.90;;;;;;5026653;28;20506;-49
2021/01/02 07:47:38;;;;;;;67.67;39.03;;;4.30;99.90;;;;;;5026238;28;20527;-48
2021/01/02 07:50:12;;;;;;;73.63;40.60;;;4.40;99.90;;;;;;5001153;28;20501;-48
2021/01/02 07:52:48;;;;;;;69.70;37.97;;;4.30;99.90;;;;;;5001974;28;20529;-52
2021/01/02 07:55:17;;;;;;;65.27;38.67;;;4.30;99.90;;;;;;4999695;28;20930;-49
2021/01/02 07:57:47;;;;;;;65.40;38.67;;;4.40;99.90;;;;;;4993061;28;20541;-48
2021/01/02 08:00:15;;;;;;;63.97;37.17;;;4.30;99.90;;;;;;4994041;28;20487;-48
2021/01/02 08:02:42;;;;;;;65.47;38.20;;;4.30;99.90;;;;;;4992794;28;20715;-48
2021/01/02 08:05:14;;;;;;;67.63;39.20;;;4.30;99.90;;;;;;4994117;28;20859;-49
2021/01/02 08:07:43;;;;;;;68.97;39.17;;;4.30;99.90;;;;;;4992462;28;20605;-48
2021/01/02 08:10:12;;;;;;;72.27;38.30;;;4.30;99.90;;;;;;4994896;28;20850;-49
2021/01/02 08:12:46;;;;;;;67.10;38.53;;;4.30;99.90;;;;;;4994670;28;20903;-48
2021/01/02 08:15:17;;;;;;;68.53;36.80;;;4.30;99.90;;;;;;4999228;28;20573;-48
2021/01/02 08:17:45;;;;;;;71.90;40.27;;;4.50;99.90;;;;;;4998014;28;21077;-48
2021/01/02 08:20:14;;;;;;;70.37;39.50;;;4.40;99.90;;;;;;4998326;28;20562;-48
2021/01/02 08:22:41;;;;;;;66.80;37.73;;;4.40;99.90;;;;;;5000816;28;20566;-48
2021/01/02 08:25:14;;;;;;;70.13;39.17;;;4.40;99.90;;;;;;5002019;28;21045;-48
2021/01/02 08:27:43;;;;;;;69.43;39.80;;;4.40;99.90;;;;;;5025269;28;20889;-49
2021/01/02 08:30:13;;;;;;;68.63;38.13;;;4.40;99.90;;;;;;5014093;28;20536;-49
2021/01/02 08:32:43;;;;;;;64.47;35.93;;;4.40;99.90;;;;;;5003514;28;20512;-48
2021/01/02 08:35:18;;;;;;;79.97;41.97;;;4.40;99.90;;;;;;4992142;28;20511;-48
2021/01/02 08:37:48;;;;;;;78.93;43.13;;;4.40;99.90;;;;;;5000623;28;21000;-48
2021/01/02 08:40:18;;;;;;;82.13;43.33;;;4.40;99.90;;;;;;5010200;28;21028;-48
2021/01/02 08:42:48;;;;;;;82.07;43.93;;;4.40;99.90;;;;;;5010663;28;20502;-48
2021/01/02 08:45:29;;;;;;;84.20;43.70;;;4.40;99.90;;;;;;5010854;28;20478;-48
2021/01/02 08:48:08;;;;;;;86.70;44.33;;;4.40;99.90;;;;;;5011040;28;20501;-49
2021/01/02 08:50:40;;;;;;;85.63;44.40;;;4.40;99.90;;;;;;5008573;28;20561;-48
2021/01/02 08:53:23;;;;;;;86.50;44.47;;;4.40;99.90;;;;;;5011060;28;20530;-48
2021/01/02 08:55:51;;;;;;;85.00;43.83;;;4.40;99.90;;;;;;5011114;28;20472;-48
2021/01/02 08:58:30;;;;;;;91.13;45.83;;;4.40;99.90;;;;;;5011464;28;20566;-48
2021/01/02 09:00:58;;;;;;;84.63;43.97;;;4.40;99.90;;;;;;5001157;28;20479;-48
2021/01/02 09:03:26;;;;;;;82.67;42.40;;;4.40;99.90;;;;;;5007235;28;20479;-48
2021/01/02 09:05:56;;;;;;;83.10;41.80;;;4.40;99.90;;;;;;5010967;28;20485;-48
2021/01/02 09:08:24;;;;;;;82.90;42.87;;;4.40;99.90;;;;;;5010426;28;20511;-48
2021/01/02 09:10:57;;;;;;;79.07;42.47;;;4.50;99.90;;;;;;5010460;28;20552;-48
2021/01/02 09:13:27;;;;;;;77.27;40.07;;;4.40;99.90;;;;;;5010075;28;20929;-48
2021/01/02 09:16:00;;;;;;;72.73;38.83;;;4.40;99.90;;;;;;5010392;28;20588;-48
2021/01/02 09:18:39;;;;;;;72.20;38.97;;;4.40;99.90;;;;;;5009502;28;20525;-48
2021/01/02 09:21:22;;;;;;;75.03;38.07;;;4.50;99.90;;;;;;5003315;28;20526;-48
2021/01/02 09:23:59;;;;;;;75.47;39.07;;;4.50;99.90;;;;;;5020593;28;20532;-48
2021/01/02 09:26:33;;;;;;;73.27;40.33;;;4.60;99.90;;;;;;5029743;28;20467;-48
2021/01/02 09:29:13;;;;;;;77.43;40.47;;;4.50;99.90;;;;;;5029843;28;20544;-48
2021/01/02 09:31:41;;;;;;;70.53;39.50;;;4.50;99.90;;;;;;4994706;28;20879;-48
2021/01/02 09:34:08;;;;;;;76.70;39.60;;;4.50;99.90;;;;;;5009936;28;21007;-48
2021/01/02 09:36:37;;;;;;;78.33;40.47;;;4.70;99.90;;;;;;5009068;28;20533;-48
2021/01/02 09:39:05;;;;;;;80.80;41.93;;;4.70;99.90;;;;;;5009321;28;20578;-48
2021/01/02 09:41:34;;;;;;;83.63;40.90;;;4.60;99.90;;;;;;5009434;28;20979;-48
2021/01/02 09:44:01;;;;;;;94.50;43.40;;;4.60;99.90;;;;;;5009762;28;20475;-49
2021/01/02 09:46:38;;;;;;;89.60;43.50;;;4.60;99.90;;;;;;5009769;28;20502;-48
2021/01/02 09:49:05;;;;;;;89.07;43.73;;;4.50;99.90;;;;;;5014948;28;20886;-47
2021/01/02 09:51:32;;;;;;;87.97;43.57;;;4.60;99.90;;;;;;5017237;28;21120;-48
2021/01/02 09:54:00;;;;;;;88.57;40.57;;;4.60;99.90;;;;;;5008157;28;20534;-49
2021/01/02 09:56:27;;;;;;;91.03;44.27;;;4.60;99.90;;;;;;5008591;28;20559;-48
2021/01/02 09:58:55;;;;;;;89.33;43.23;;;4.60;99.90;;;;;;5008497;28;20568;-48
2021/01/02 10:01:22;;;;;;;93.23;40.73;;;4.60;99.90;;;;;;5007565;28;21059;-48
2021/01/02 10:03:50;;;;;;;99.67;44.97;;;4.70;99.90;;;;;;5008050;28;21242;-49
2021/01/02 10:06:18;;;;;;;102.20;44.77;;;4.70;99.90;;;;;;5002548;28;20515;-48
2021/01/02 10:08:45;;;;;;;93.57;43.77;;;4.60;99.90;;;;;;4996713;28;21232;-48
2021/01/02 10:11:12;;;;;;;95.60;44.07;;;4.60;99.90;;;;;;4997300;28;20514;-49
2021/01/02 10:13:39;;;;;;;100.07;44.67;;;4.80;99.90;;;;;;4998513;28;20484;-48
2021/01/02 10:16:07;;;;;;;88.80;42.10;;;4.70;99.90;;;;;;5000490;28;20511;-48
2021/01/02 10:18:35;;;;;;;89.17;40.70;;;4.70;99.90;;;;;;5000413;28;20580;-48
2021/01/02 10:21:02;;;;;;;91.53;42.00;;;4.80;99.90;;;;;;4994972;28;20578;-48
2021/01/02 10:23:29;;;;;;;90.83;42.60;;;4.80;99.90;;;;;;4994173;28;20578;-49
2021/01/02 10:25:57;;;;;;;92.00;42.60;;;4.80;99.90;;;;;;4995730;28;20490;-50
2021/01/02 10:28:24;;;;;;;85.50;40.27;;;4.70;99.90;;;;;;4994932;28;20590;-50
2021/01/02 10:30:51;;;;;;;84.53;40.70;;;4.80;99.90;;;;;;4994778;28;20924;-48
2021/01/02 10:33:20;;;;;;;84.77;40.60;;;4.80;99.90;;;;;;4992694;28;20451;-49
2021/01/02 10:35:47;;;;;;;85.90;38.83;;;4.80;99.90;;;;;;4994823;28;21175;-49
2021/01/02 10:38:14;;;;;;;88.33;40.83;;;4.80;99.90;;;;;;4995431;28;21031;-48
2021/01/02 10:40:41;;;;;;;78.80;38.00;;;4.90;99.90;;;;;;4996187;28;20883;-49
2021/01/02 10:43:09;;;;;;;82.97;39.17;;;4.80;99.90;;;;;;4992026;28;20494;-48
2021/01/02 10:45:36;;;;;;;84.73;39.47;;;4.90;99.90;;;;;;4994719;28;20552;-48
2021/01/02 10:48:04;;;;;;;84.23;41.07;;;4.80;99.90;;;;;;4995516;28;21007;-50
2021/01/02 10:50:32;;;;;;;86.27;39.73;;;4.90;99.90;;;;;;4994817;28;20511;-48
2021/01/02 10:52:59;;;;;;;77.40;38.90;;;4.90;99.90;;;;;;4993546;28;20553;-49
2021/01/02 10:55:27;;;;;;;83.17;38.97;;;4.90;99.90;;;;;;4998132;28;20496;-48
2021/01/02 10:57:54;;;;;;;78.20;37.33;;;5.00;99.90;;;;;;4997144;28;20486;-51
2021/01/02 11:00:23;;;;;;;78.20;38.03;;;5.00;99.90;;;;;;4996696;28;20499;-48
2021/01/02 11:02:50;;;;;;;76.70;39.80;;;5.00;99.90;;;;;;4993662;28;21033;-49
2021/01/02 11:05:17;;;;;;;73.50;37.83;;;4.90;99.90;;;;;;4997636;28;21022;-48
2021/01/02 11:07:46;;;;;;;80.60;38.53;;;4.90;99.90;;;;;;4996220;28;20612;-48
2021/01/02 11:10:13;;;;;;;76.17;39.00;;;4.90;99.90;;;;;;4996048;28;20697;-48
2021/01/02 11:12:42;;;;;;;66.67;36.00;;;4.90;99.90;;;;;;4992697;28;20481;-51
2021/01/02 11:15:12;;;;;;;73.00;37.40;;;4.90;99.90;;;;;;4993342;28;20552;-49
2021/01/02 11:17:40;;;;;;;70.70;33.70;;;5.00;99.90;;;;;;4996246;28;20913;-49
2021/01/02 11:20:09;;;;;;;77.50;36.97;;;5.10;99.90;;;;;;4994655;28;20576;-48
2021/01/02 11:22:36;;;;;;;73.77;37.10;;;5.00;99.90;;;;;;4994309;28;20492;-48
2021/01/02 11:25:06;;;;;;;71.83;36.67;;;5.00;99.90;;;;;;4996717;28;20584;-48
2021/01/02 11:27:34;;;;;;;78.53;37.40;;;4.90;99.90;;;;;;4996984;28;20935;-48
2021/01/02 11:30:01;;;;;;;79.07;37.30;;;5.00;99.90;;;;;;4996259;28;20872;-48
2021/01/02 11:32:28;;;;;;;78.50;37.57;;;4.90;99.90;;;;;;4994325;28;20605;-49
2021/01/02 11:34:56;;;;;;;73.67;35.90;;;4.90;99.90;;;;;;4996823;28;20859;-48
2021/01/02 11:37:23;;;;;;;74.53;35.67;;;4.90;99.90;;;;;;4997626;28;20486;-48
2021/01/02 11:39:50;;;;;;;73.63;35.43;;;4.90;99.90;;;;;;4995910;28;20586;-49
2021/01/02 11:42:18;;;;;;;85.90;37.70;;;5.00;99.90;;;;;;4995338;28;20484;-49
2021/01/02 11:44:46;;;;;;;85.37;39.20;;;5.40;99.90;;;;;;4994658;28;21086;-48
2021/01/02 11:47:13;;;;;;;81.23;37.90;;;5.40;99.90;;;;;;5007003;28;20558;-48
2021/01/02 11:49:40;;;;;;;83.33;38.73;;;5.20;99.90;;;;;;5010478;28;20515;-49
2021/01/02 11:52:10;;;;;;;81.00;37.00;;;5.20;99.90;;;;;;5011362;28;20513;-48
2021/01/02 11:54:37;;;;;;;71.73;35.80;;;5.20;99.90;;;;;;5011595;28;20511;-48
2021/01/02 11:57:06;;;;;;;75.47;36.30;;;5.10;99.90;;;;;;5011869;28;20507;-48
2021/01/02 11:59:34;;;;;;;79.27;37.17;;;5.20;99.90;;;;;;5008611;28;20486;-48
2021/01/02 12:02:06;;;;;;;79.90;36.97;;;5.10;99.90;;;;;;5008589;28;20478;-49
2021/01/02 12:04:33;;;;;;;72.27;36.20;;;5.10;99.90;;;;;;5011536;28;20483;-49
2021/01/02 12:07:03;;;;;;;77.93;35.50;;;5.00;99.90;;;;;;5012249;28;20495;-50
2021/01/02 12:09:31;;;;;;;79.23;35.70;;;5.00;99.90;;;;;;5005897;28;20484;-48
2021/01/02 12:11:59;;;;;;;74.23;35.97;;;5.00;99.90;;;;;;5005740;28;20552;-48
2021/01/02 12:14:30;;;;;;;71.13;34.97;;;5.00;99.90;;;;;;5015283;28;20478;-49
2021/01/02 12:17:02;;;;;;;71.33;35.30;;;5.00;99.90;;;;;;5028647;28;20482;-49
2021/01/02 12:19:31;;;;;;;64.80;33.47;;;5.00;99.90;;;;;;5010676;28;20576;-49
2021/01/02 12:22:01;;;;;;;75.53;35.20;;;4.90;99.90;;;;;;5022898;28;20462;-48
2021/01/02 12:24:29;;;;;;;70.97;34.70;;;5.00;99.90;;;;;;5031102;28;20510;-48
2021/01/02 12:27:01;;;;;;;69.17;34.40;;;4.90;99.90;;;;;;5030450;28;20479;-48
2021/01/02 12:29:31;;;;;;;80.60;36.57;;;4.90;99.90;;;;;;5010952;28;20472;-48
2021/01/02 12:32:03;;;;;;;71.43;35.87;;;5.00;99.90;;;;;;5010661;28;20712;-47
2021/01/02 12:34:34;;;;;;;72.40;36.07;;;5.00;99.90;;;;;;5010651;28;20510;-48
2021/01/02 12:37:06;;;;;;;74.37;36.93;;;4.90;99.90;;;;;;5009756;28;20507;-47
2021/01/02 12:39:39;;;;;;;64.03;33.47;;;5.00;99.90;;;;;;5011768;28;20511;-49
2021/01/02 12:42:09;;;;;;;74.37;34.70;;;5.00;99.90;;;;;;5018320;28;21016;-48
2021/01/02 12:44:36;;;;;;;80.33;38.10;;;5.00;99.90;;;;;;5011060;28;20541;-48
2021/01/02 12:47:08;;;;;;;78.40;37.23;;;5.00;99.90;;;;;;5010339;28;20550;-51
2021/01/02 12:49:36;;;;;;;75.87;37.33;;;5.00;99.90;;;;;;5010521;28;21064;-49
2021/01/02 12:52:06;;;;;;;75.30;36.40;;;4.90;99.90;;;;;;5009326;28;20799;-48
2021/01/02 12:54:35;;;;;;;83.77;40.27;;;5.00;99.90;;;;;;5009423;28;20518;-48
2021/01/02 12:57:04;;;;;;;79.93;36.97;;;5.00;99.90;;;;;;5010427;28;20484;-48
2021/01/02 12:59:34;;;;;;;82.90;37.20;;;4.90;99.90;;;;;;5010166;28;20486;-49
2021/01/02 13:02:07;;;;;;;72.93;36.93;;;5.00;99.90;;;;;;5009629;28;20480;-48
2021/01/02 13:04:35;;;;;;;79.03;38.47;;;5.00;99.90;;;;;;5010890;28;20504;-48